Time;durP1;ratioP1;P1;durP2;ratioP2;P2;SDS_P1;SDS_P2;PMS_P1;PMS_P2;Temp;Humidity;BMP_temperature;BMP_pressure;BME280_temperature;BME280_humidity;BME280_pressure;Samples;Min_cycle;Max_cycle;Signal;HPM_P1;HPM_P2
2022/05/22 00:00:46;;;;;;;35.17;9.88;;;;;;;12.00;85.57;101897.28;4997680;28;20038;-81
2022/05/22 00:03:12;;;;;;;45.05;10.98;;;;;;;11.96;85.67;101890.53;4997868;28;20030;-82
2022/05/22 00:05:38;;;;;;;30.40;8.98;;;;;;;11.93;85.57;101890.88;4997514;28;20026;-81
2022/05/22 00:08:03;;;;;;;34.50;9.45;;;;;;;11.88;85.62;101881.59;4997673;28;20090;-81
2022/05/22 00:10:28;;;;;;;30.50;10.02;;;;;;;11.84;86.24;101889.97;4997593;28;20035;-81
2022/05/22 00:12:54;;;;;;;32.88;9.75;;;;;;;11.83;86.78;101884.75;4997487;28;20022;-81
2022/05/22 00:15:19;;;;;;;34.40;11.65;;;;;;;11.81;86.82;101892.16;4997471;28;20054;-81
2022/05/22 00:17:44;;;;;;;31.48;9.27;;;;;;;11.76;86.66;101891.78;4964588;28;20022;-81
2022/05/22 00:20:12;;;;;;;34.03;9.55;;;;;;;11.75;86.79;101887.44;4997464;28;20106;-81
2022/05/22 00:22:37;;;;;;;32.17;9.52;;;;;;;11.75;86.24;101884.72;4997422;28;20050;-81
2022/05/22 00:25:05;;;;;;;33.05;10.00;;;;;;;11.68;85.77;101879.13;4980430;28;20052;-81
2022/05/22 00:27:31;;;;;;;35.47;9.27;;;;;;;11.64;86.92;101884.03;4996586;28;20050;-81
2022/05/22 00:29:56;;;;;;;35.13;9.85;;;;;;;11.62;87.23;101888.72;4996879;28;20035;-82
2022/05/22 00:32:23;;;;;;;33.42;9.82;;;;;;;11.60;87.48;101893.44;4997495;28;20038;-82
2022/05/22 00:34:48;;;;;;;30.92;9.70;;;;;;;11.59;87.62;101890.91;4979991;28;20142;-81
2022/05/22 00:37:13;;;;;;;35.15;9.75;;;;;;;11.58;87.50;101892.75;4997206;28;20023;-80
2022/05/22 00:39:39;;;;;;;27.98;9.10;;;;;;;11.59;87.47;101890.91;4996782;28;20086;-81
2022/05/22 00:42:15;;;;;;;28.83;10.50;;;;;;;11.57;86.88;101890.22;4996820;28;20018;-80
2022/05/22 00:44:40;;;;;;;35.28;10.20;;;;;;;11.52;87.00;101884.47;4996825;28;20022;-81
2022/05/22 00:47:06;;;;;;;34.70;9.88;;;;;;;11.48;87.34;101867.78;4997135;28;20030;-81
2022/05/22 00:49:33;;;;;;;27.95;9.82;;;;;;;11.47;87.64;101862.53;4996792;28;20023;-82
2022/05/22 00:52:05;;;;;;;31.63;9.82;;;;;;;11.41;87.94;101861.34;4980504;28;20135;-81
2022/05/22 00:54:44;;;;;;;34.53;11.18;;;;;;;11.40;88.51;101859.66;4996564;28;20027;-82
2022/05/22 00:57:12;;;;;;;40.42;12.48;;;;;;;11.38;88.64;101859.81;4980050;28;20031;-82
2022/05/22 00:59:40;;;;;;;26.73;9.55;;;;;;;11.39;88.39;101874.97;4979632;28;20014;-82
2022/05/22 01:02:06;;;;;;;31.58;10.50;;;;;;;11.36;88.96;101875.31;4979360;28;20090;-82
2022/05/22 01:04:34;;;;;;;30.02;10.18;;;;;;;11.32;89.24;101870.38;4994431;28;20105;-82
2022/05/22 01:07:00;;;;;;;30.25;10.93;;;;;;;11.27;89.42;101875.41;4993988;28;20051;-81
2022/05/22 01:09:25;;;;;;;25.60;9.75;;;;;;;11.21;89.44;101877.75;4979869;28;20038;-81
2022/05/22 01:11:54;;;;;;;35.70;10.82;;;;;;;11.20;89.44;101881.47;4996822;28;20027;-81
2022/05/22 01:14:22;;;;;;;32.35;10.57;;;;;;;11.20;89.44;101886.00;4996607;28;20085;-82
2022/05/22 01:16:49;;;;;;;22.57;10.33;;;;;;;11.17;89.40;101881.78;4995761;28;20047;-81
2022/05/22 01:19:16;;;;;;;30.30;9.98;;;;;;;11.16;89.65;101874.72;4990866;28;20278;-82
2022/05/22 01:21:49;;;;;;;20.35;9.20;;;;;;;11.16;89.39;101861.25;4996384;28;20046;-81
2022/05/22 01:24:14;;;;;;;28.42;9.48;;;;;;;11.16;89.39;101857.69;4979748;28;20110;-81
2022/05/22 01:26:40;;;;;;;27.92;10.90;;;;;;;11.16;89.72;101852.31;4992704;28;20293;-82
2022/05/22 01:29:05;;;;;;;36.75;10.75;;;;;;;11.16;90.09;101858.56;4974086;28;20081;-81
2022/05/22 01:31:30;;;;;;;28.13;9.68;;;;;;;11.12;89.92;101845.56;4991375;28;20117;-80
2022/05/22 01:33:56;;;;;;;33.38;10.95;;;;;;;11.10;89.71;101847.56;4991232;28;20059;-79
2022/05/22 01:36:21;;;;;;;29.95;9.60;;;;;;;11.08;89.96;101834.25;4993182;28;20098;-80
2022/05/22 01:38:47;;;;;;;26.85;10.05;;;;;;;11.03;89.76;101830.34;4992862;28;20037;-80
2022/05/22 01:41:12;;;;;;;24.10;9.63;;;;;;;11.02;89.94;101834.06;4994041;28;20022;-82
2022/05/22 01:43:37;;;;;;;23.75;8.98;;;;;;;10.99;90.32;101832.53;4996458;28;20026;-82
2022/05/22 01:46:02;;;;;;;31.95;10.57;;;;;;;10.96;90.44;101830.16;4989603;28;20056;-80
2022/05/22 01:48:29;;;;;;;23.23;9.45;;;;;;;10.95;90.54;101829.31;4985777;28;20023;-81
2022/05/22 01:50:54;;;;;;;30.38;9.55;;;;;;;10.91;90.49;101821.72;4996465;28;20050;-81
2022/05/22 01:53:20;;;;;;;26.25;9.32;;;;;;;10.91;90.76;101819.03;4996600;28;20039;-82
2022/05/22 01:55:46;;;;;;;31.50;9.60;;;;;;;10.93;90.82;101822.41;4996384;28;20038;-82
2022/05/22 01:58:12;;;;;;;24.48;9.15;;;;;;;10.95;90.58;101813.16;4996637;28;20050;-82
2022/05/22 02:00:38;;;;;;;24.02;8.77;;;;;;;10.98;90.22;101812.00;4996341;28;20023;-81
2022/05/22 02:03:04;;;;;;;30.92;8.98;;;;;;;10.94;90.38;101814.16;4996373;28;20035;-81
2022/05/22 02:05:29;;;;;;;19.77;7.82;;;;;;;10.94;90.26;101807.91;4996188;28;20027;-82
2022/05/22 02:10:40;;;;;;;32.72;9.48;;;;;;;10.92;90.46;101807.22;4996540;28;20038;-80
2022/05/22 02:13:06;;;;;;;23.45;9.45;;;;;;;10.91;90.99;101806.38;4999265;28;20035;-82
2022/05/22 02:15:31;;;;;;;28.48;9.68;;;;;;;10.88;90.65;101803.19;4983170;28;20152;-82
2022/05/22 02:17:57;;;;;;;25.77;9.05;;;;;;;10.88;90.16;101795.09;4999947;28;20121;-81
2022/05/22 02:20:23;;;;;;;21.52;9.55;;;;;;;10.84;89.52;101793.72;4983059;28;20019;-82
2022/05/22 02:22:51;;;;;;;20.95;9.57;;;;;;;10.76;89.82;101784.59;4982725;28;20578;-81
2022/05/22 02:25:20;;;;;;;22.35;8.23;;;;;;;10.76;90.26;101792.66;4987347;28;20031;-79
2022/05/22 02:27:45;;;;;;;25.15;8.80;;;;;;;10.72;90.78;101795.88;4982324;28;20034;-78
2022/05/22 02:30:13;;;;;;;23.67;8.85;;;;;;;10.68;90.67;101789.94;4984497;28;20034;-78
2022/05/22 02:32:38;;;;;;;23.00;9.35;;;;;;;10.68;91.28;101783.72;4996805;28;20011;-79
2022/05/22 02:35:06;;;;;;;31.70;9.27;;;;;;;10.67;91.40;101782.88;4999154;28;20073;-80
2022/05/22 02:37:31;;;;;;;21.38;8.38;;;;;;;10.67;91.35;101782.03;4983442;28;20023;-79
2022/05/22 02:39:58;;;;;;;26.27;9.02;;;;;;;10.65;91.04;101778.66;5000330;28;20050;-80
2022/05/22 02:42:23;;;;;;;26.77;10.02;;;;;;;10.63;91.27;101776.09;5000367;28;20023;-80
2022/05/22 02:44:48;;;;;;;24.65;9.65;;;;;;;10.66;91.81;101783.03;4994168;28;20099;-81
2022/05/22 02:47:14;;;;;;;22.90;9.82;;;;;;;10.67;91.95;101782.88;4993460;28;20102;-82
2022/05/22 02:49:39;;;;;;;32.10;9.05;;;;;;;10.68;91.94;101778.31;4999233;28;20058;-80
2022/05/22 02:52:05;;;;;;;30.50;9.48;;;;;;;10.66;91.58;101781.16;4981776;28;20031;-81
2022/05/22 02:54:30;;;;;;;21.48;8.50;;;;;;;10.67;91.25;101787.41;4989717;28;20049;-80
2022/05/22 02:56:55;;;;;;;27.73;8.68;;;;;;;10.64;91.11;101791.28;4983097;28;20042;-80
2022/05/22 02:59:20;;;;;;;28.52;8.43;;;;;;;10.65;90.95;101786.72;4987353;28;20041;-81
2022/05/22 03:01:46;;;;;;;19.75;8.68;;;;;;;10.63;90.54;101770.72;4985125;28;20138;-80
2022/05/22 03:04:11;;;;;;;30.98;9.18;;;;;;;10.59;90.42;101766.69;4990464;28;20042;-80
2022/05/22 03:06:39;;;;;;;26.35;9.15;;;;;;;10.56;90.51;101767.00;4998532;28;20027;-81
2022/05/22 03:09:09;;;;;;;22.50;8.35;;;;;;;10.59;90.51;101763.97;4994428;28;20042;-81
2022/05/22 03:11:37;;;;;;;24.17;8.95;;;;;;;10.54;90.26;101766.31;4977657;28;20022;-81
2022/05/22 03:14:02;;;;;;;25.95;9.10;;;;;;;10.52;90.79;101768.31;4995764;28;20031;-81
2022/05/22 03:16:27;;;;;;;25.48;8.30;;;;;;;10.49;90.80;101774.00;4995167;28;20069;-81
2022/05/22 03:18:53;;;;;;;23.10;8.70;;;;;;;10.46;91.07;101768.94;4981112;28;20019;-80
2022/05/22 03:21:18;;;;;;;25.33;9.05;;;;;;;10.47;91.15;101762.56;4997611;28;20039;-81
2022/05/22 03:23:43;;;;;;;18.73;9.18;;;;;;;10.47;91.14;101758.00;4988694;28;20035;-81
2022/05/22 03:26:09;;;;;;;24.88;10.15;;;;;;;10.48;91.26;101758.88;4983921;28;20038;-80
2022/05/22 03:28:35;;;;;;;23.10;10.30;;;;;;;10.51;91.67;101753.19;4974032;28;20049;-80
2022/05/22 03:31:00;;;;;;;25.52;9.55;;;;;;;10.49;91.85;101750.63;4977658;28;20038;-80
2022/05/22 03:33:27;;;;;;;24.33;8.73;;;;;;;10.50;91.86;101751.47;4996958;28;20039;-81
2022/05/22 03:35:52;;;;;;;29.38;9.05;;;;;;;10.47;91.79;101747.25;4996616;28;20050;-80
2022/05/22 03:38:17;;;;;;;30.65;9.63;;;;;;;10.47;91.66;101749.94;4993041;28;20082;-81
2022/05/22 03:40:45;;;;;;;22.30;8.40;;;;;;;10.46;91.35;101747.41;4994941;28;20143;-82
2022/05/22 03:43:12;;;;;;;29.77;10.60;;;;;;;10.47;91.62;101749.09;4994860;28;20023;-82
2022/05/22 03:45:37;;;;;;;37.33;9.27;;;;;;;10.50;92.04;101743.38;4995527;28;20058;-81
2022/05/22 03:48:03;;;;;;;28.80;10.48;;;;;;;10.50;92.13;101735.31;4976784;28;20327;-81
2022/05/22 03:50:29;;;;;;;27.52;9.55;;;;;;;10.49;92.01;101736.34;4998333;28;20025;-81
2022/05/22 03:52:54;;;;;;;29.10;9.38;;;;;;;10.50;91.65;101741.53;4998077;28;20023;-81
2022/05/22 03:55:19;;;;;;;23.60;9.40;;;;;;;10.52;91.72;101738.69;4998303;28;20054;-81
2022/05/22 03:57:46;;;;;;;23.08;10.45;;;;;;;10.54;92.11;101739.41;4998100;28;20027;-80
2022/05/22 04:00:12;;;;;;;16.45;8.68;;;;;;;10.55;91.79;101735.69;4997957;28;20030;-81
2022/05/22 04:02:37;;;;;;;25.48;8.85;;;;;;;10.58;91.99;101727.28;4996254;28;20038;-81
2022/05/22 04:05:04;;;;;;;22.77;8.77;;;;;;;10.59;91.93;101722.78;4996093;28;20042;-80
2022/05/22 04:07:29;;;;;;;22.58;8.77;;;;;;;10.60;91.82;101722.59;4976640;28;20027;-81
2022/05/22 04:09:57;;;;;;;26.05;9.30;;;;;;;10.62;91.75;101722.44;5001035;28;20033;-80
2022/05/22 04:12:23;;;;;;;27.45;9.90;;;;;;;10.66;91.70;101726.47;5015824;28;20022;-81
2022/05/22 04:14:48;;;;;;;25.63;9.68;;;;;;;10.66;91.48;101726.47;5002042;28;20189;-81
2022/05/22 04:17:13;;;;;;;23.02;10.05;;;;;;;10.70;91.74;101727.88;4996025;28;20026;-81
2022/05/22 04:19:39;;;;;;;24.70;9.60;;;;;;;10.76;92.19;101728.03;4994466;28;20018;-81
2022/05/22 04:22:05;;;;;;;25.50;9.75;;;;;;;10.84;92.38;101718.31;4995704;28;20073;-81
2022/05/22 04:27:15;;;;;;;23.38;9.25;;;;;;;10.99;91.76;101724.78;4980248;28;20042;-82
2022/05/22 04:29:41;;;;;;;24.67;9.63;;;;;;;11.09;91.65;101721.97;4959540;28;20016;-82
2022/05/22 04:32:06;;;;;;;25.30;9.48;;;;;;;11.15;91.08;101730.22;4976330;28;20051;-82
2022/05/22 04:34:31;;;;;;;25.25;9.13;;;;;;;11.18;90.57;101711.03;4975641;28;20043;-81
2022/05/22 04:36:57;;;;;;;24.17;8.18;;;;;;;11.20;90.09;101714.41;4975754;28;20089;-80
2022/05/22 04:39:22;;;;;;;20.63;8.23;;;;;;;11.14;89.81;101704.28;4975466;28;20023;-82
2022/05/22 04:41:48;;;;;;;17.67;7.32;;;;;;;11.20;90.04;101719.78;4976320;28;20027;-81
2022/05/22 04:44:13;;;;;;;21.85;7.95;;;;;;;11.19;89.66;101717.28;4975927;28;20020;-82
2022/05/22 04:46:38;;;;;;;22.17;8.55;;;;;;;11.20;89.49;101717.09;4975589;28;20031;-82
2022/05/22 04:49:04;;;;;;;23.65;8.10;;;;;;;11.24;89.35;101714.06;4976022;28;20035;-82
2022/05/22 04:51:29;;;;;;;30.52;8.70;;;;;;;11.26;89.46;101717.44;4976289;28;20027;-82
2022/05/22 04:53:54;;;;;;;15.63;6.60;;;;;;;11.33;89.77;101713.94;4957822;28;20030;-82
2022/05/22 04:56:20;;;;;;;15.88;7.50;;;;;;;11.46;90.13;101710.75;4976216;28;20042;-82
2022/05/22 04:58:46;;;;;;;23.45;6.97;;;;;;;11.52;89.36;101733.50;4976090;28;20015;-82
2022/05/22 05:01:12;;;;;;;17.40;6.25;;;;;;;11.71;89.19;101732.34;4976198;28;20022;-82
2022/05/22 05:03:38;;;;;;;27.80;8.10;;;;;;;11.92;89.01;101719.22;4990353;28;20087;-81
2022/05/22 05:06:03;;;;;;;18.45;6.75;;;;;;;12.06;87.42;101715.84;4995494;28;20030;-82
2022/05/22 05:08:32;;;;;;;16.60;6.93;;;;;;;12.14;86.84;101716.84;4995272;28;20034;-82
2022/05/22 05:10:59;;;;;;;20.08;7.57;;;;;;;12.21;86.74;101710.59;4995258;28;20094;-82
2022/05/22 05:13:25;;;;;;;28.90;7.65;;;;;;;12.28;86.63;101718.84;4995410;28;20031;-82
2022/05/22 05:16:01;;;;;;;20.40;7.43;;;;;;;12.45;86.18;101716.94;4978058;28;20050;-82
2022/05/22 05:18:27;;;;;;;35.22;11.30;;;;;;;12.47;85.29;101720.31;4994917;28;20035;-82
2022/05/22 05:20:52;;;;;;;30.17;11.70;;;;;;;12.51;85.02;101730.59;4991855;28;20495;-80
2022/05/22 05:23:18;;;;;;;33.28;12.80;;;;;;;12.53;83.94;101727.72;4991407;28;20078;-82
2022/05/22 05:25:43;;;;;;;36.17;12.65;;;;;;;12.33;84.09;101732.69;4976443;28;20019;-82
2022/05/22 05:28:08;;;;;;;29.08;12.55;;;;;;;12.29;84.93;101728.63;4994961;28;20031;-81
2022/05/22 05:30:34;;;;;;;32.20;12.25;;;;;;;12.20;85.41;101733.19;4995294;28;20023;-81
2022/05/22 05:32:59;;;;;;;39.85;13.32;;;;;;;12.38;85.75;101734.88;4993823;28;20075;-84
2022/05/22 05:35:24;;;;;;;32.88;12.27;;;;;;;12.49;85.36;101734.50;4977999;28;20050;-83
2022/05/22 05:37:51;;;;;;;32.42;11.65;;;;;;;12.60;85.13;101730.59;4994867;28;20069;-84
2022/05/22 05:40:17;;;;;;;30.30;11.75;;;;;;;12.74;85.18;101729.84;4995137;28;20035;-83
2022/05/22 05:42:42;;;;;;;35.38;11.93;;;;;;;12.85;85.01;101737.59;4994896;28;20030;-82
2022/05/22 05:45:10;;;;;;;29.10;10.98;;;;;;;13.10;85.10;101730.19;4993977;28;20038;-82
2022/05/22 05:47:35;;;;;;;;;;;;;;;13.15;83.21;101729.69;4980846;28;20027;-83
2022/05/22 05:50:01;;;;;;;28.13;9.45;;;;;;;13.22;82.45;101721.69;4997547;28;19949;-81
2022/05/22 05:52:26;;;;;;;26.55;9.55;;;;;;;13.37;81.43;101731.59;4989675;28;20059;-81
2022/05/22 05:54:52;;;;;;;21.48;8.75;;;;;;;13.54;80.21;101734.22;4965664;28;20034;-82
2022/05/22 05:57:17;;;;;;;26.73;8.85;;;;;;;13.45;79.27;101727.16;4979545;28;20116;-82
2022/05/22 05:59:43;;;;;;;23.38;7.97;;;;;;;13.59;79.67;101723.69;4977726;28;20039;-81
2022/05/22 06:02:15;;;;;;;30.20;8.32;;;;;;;13.67;79.75;101723.63;4981857;28;20069;-82
2022/05/22 06:04:41;;;;;;;22.80;8.00;;;;;;;13.83;79.35;101720.78;4998243;28;20026;-82
2022/05/22 06:07:06;;;;;;;23.27;7.50;;;;;;;13.95;77.77;101725.75;4981617;28;20042;-83
2022/05/22 06:09:32;;;;;;;20.30;7.35;;;;;;;14.11;77.30;101720.19;4998432;28;20014;-81
2022/05/22 06:11:57;;;;;;;19.20;5.88;;;;;;;14.39;75.67;101715.00;4998227;28;20023;-83
2022/05/22 06:14:26;;;;;;;19.05;5.78;;;;;;;14.73;76.21;101720.94;4998287;28;20031;-82
2022/05/22 06:16:51;;;;;;;20.23;5.20;;;;;;;15.38;75.05;101730.91;4994789;28;20026;-81
2022/05/22 06:19:53;;;;;;;16.48;4.63;;;;;;;15.98;69.19;101726.94;4994555;28;20027;-82
2022/05/22 06:22:02;;;;;;;12.68;3.88;;;;;;;17.16;65.14;101715.28;4996930;28;20058;-83
2022/05/22 06:24:27;;;;;;;20.10;4.22;;;;;;;18.00;61.43;101723.00;4996044;28;20015;-83
2022/05/22 06:26:53;;;;;;;14.10;4.10;;;;;;;18.75;58.78;101723.53;4981116;28;20050;-83
2022/05/22 06:29:18;;;;;;;19.50;3.92;;;;;;;18.87;55.75;101723.69;4995749;28;20101;-83
2022/05/22 06:31:43;;;;;;;16.55;4.10;;;;;;;19.28;55.36;101720.56;4994767;28;20226;-81
2022/05/22 06:34:08;;;;;;;16.42;4.03;;;;;;;19.24;55.47;101732.97;4988883;28;20111;-80
2022/05/22 06:36:34;;;;;;;16.85;4.10;;;;;;;19.53;53.00;101737.00;4987873;28;20059;-81
2022/05/22 06:41:43;;;;;;;12.32;3.65;;;;;;;19.35;52.76;101730.63;5001308;28;20070;-80
2022/05/22 06:44:08;;;;;;;16.05;3.80;;;;;;;19.39;52.24;101740.06;4996711;28;20023;-81
2022/05/22 06:46:34;;;;;;;13.57;3.50;;;;;;;19.46;51.52;101733.50;4978940;28;20015;-79
2022/05/22 06:49:01;;;;;;;19.95;3.95;;;;;;;19.04;53.53;101722.16;4972342;28;20179;-80
2022/05/22 06:51:27;;;;;;;18.15;3.78;;;;;;;18.96;54.72;101729.78;4972224;28;20066;-81
2022/05/22 06:53:52;;;;;;;18.65;3.45;;;;;;;19.98;51.82;101738.81;4980163;28;20027;-81
2022/05/22 06:56:17;;;;;;;20.63;4.00;;;;;;;19.86;50.67;101726.97;4983637;28;20019;-82
2022/05/22 06:58:43;;;;;;;28.05;4.60;;;;;;;20.31;49.80;101745.91;4997934;28;20030;-81
2022/05/22 07:01:08;;;;;;;19.40;3.88;;;;;;;20.20;49.30;101741.19;4992189;28;20034;-80
2022/05/22 07:03:35;;;;;;;16.65;4.15;;;;;;;20.90;48.17;101738.97;4984892;28;20029;-80
2022/05/22 07:06:00;;;;;;;17.25;3.95;;;;;;;20.15;49.79;101734.47;4977866;28;20443;-79
2022/05/22 07:08:27;;;;;;;20.40;4.15;;;;;;;20.19;48.90;101718.44;4982221;28;20048;-80
2022/05/22 07:13:36;;;;;;;18.23;3.92;;;;;;;22.14;45.31;101720.13;4965845;28;20089;-78
2022/05/22 07:16:04;;;;;;;16.15;4.15;;;;;;;22.69;44.39;101726.31;4981628;28;20213;-79
2022/05/22 07:18:29;;;;;;;16.80;4.13;;;;;;;22.09;44.17;101722.75;4986233;28;20034;-79
2022/05/22 07:20:55;;;;;;;25.65;4.65;;;;;;;21.13;45.70;101719.13;4965875;28;20031;-79
2022/05/22 07:23:20;;;;;;;27.35;4.32;;;;;;;21.22;45.81;101723.22;4982916;28;20027;-80
2022/05/22 07:25:45;;;;;;;16.92;4.15;;;;;;;21.42;45.48;101731.16;4978197;28;20037;-80
2022/05/22 07:28:11;;;;;;;24.70;4.45;;;;;;;22.24;43.53;101730.50;4978382;28;20022;-81
2022/05/22 07:30:36;;;;;;;21.05;3.80;;;;;;;22.36;43.75;101730.53;4980256;28;20030;-80
2022/05/22 07:33:01;;;;;;;20.10;4.03;;;;;;;21.38;45.45;101731.84;4979653;28;20057;-81
2022/05/22 07:35:27;;;;;;;19.17;3.50;;;;;;;21.37;45.09;101724.69;4976843;28;20519;-80
2022/05/22 07:37:52;;;;;;;22.95;3.30;;;;;;;21.38;42.97;101716.28;4976567;28;20026;-80
2022/05/22 07:40:18;;;;;;;19.17;3.13;;;;;;;22.96;41.30;101716.50;4979215;28;20035;-80
2022/05/22 07:42:44;;;;;;;19.50;3.55;;;;;;;22.74;40.43;101719.00;4977243;28;20031;-79
2022/05/22 07:45:11;;;;;;;13.07;3.60;;;;;;;22.47;42.61;101705.00;4980764;28;20030;-79
2022/05/22 07:47:36;;;;;;;17.55;3.45;;;;;;;23.94;40.30;101710.88;4979004;28;20137;-79
2022/05/22 07:50:17;;;;;;;14.13;3.42;;;;;;;24.45;38.64;101703.41;4976578;28;20050;-82
2022/05/22 07:52:43;;;;;;;16.23;4.07;;;;;;;24.51;38.87;101707.91;4958863;28;20038;-80
2022/05/22 07:55:15;;;;;;;20.58;3.42;;;;;;;25.83;34.60;101704.16;4975743;28;20090;-80
2022/05/22 07:57:46;;;;;;;16.45;3.20;;;;;;;25.06;36.40;101692.31;4957826;28;20034;-80
2022/05/22 08:00:15;;;;;;;17.77;3.75;;;;;;;24.87;36.24;101696.53;4972889;28;20547;-81
2022/05/22 08:02:41;;;;;;;19.42;3.30;;;;;;;25.40;35.00;101694.91;4973466;28;20058;-80
2022/05/22 08:05:08;;;;;;;23.45;3.42;;;;;;;25.36;33.75;101693.78;4973610;28;20034;-81
2022/05/22 08:07:34;;;;;;;22.23;3.80;;;;;;;25.70;33.28;101691.63;4955840;28;20296;-80
2022/05/22 08:09:59;;;;;;;13.23;2.83;;;;;;;25.01;33.54;101688.69;4973751;28;20030;-80
2022/05/22 08:12:25;;;;;;;11.82;3.00;;;;;;;24.90;32.14;101685.81;4973305;28;20117;-79
2022/05/22 08:14:51;;;;;;;19.73;3.40;;;;;;;23.84;35.57;101689.53;4973020;28;20062;-79
2022/05/22 08:17:21;;;;;;;23.95;3.22;;;;;;;24.77;35.38;101683.47;4973325;28;20034;-79
2022/05/22 08:19:47;;;;;;;20.08;3.65;;;;;;;25.02;33.43;101674.69;4971061;28;20035;-80
2022/05/22 08:22:14;;;;;;;29.73;4.55;;;;;;;24.60;35.13;101675.28;4975224;28;20023;-79
2022/05/22 08:24:39;;;;;;;23.45;3.90;;;;;;;23.93;36.66;101667.13;4973276;28;20039;-79
2022/05/22 08:27:05;;;;;;;26.73;4.20;;;;;;;23.85;36.92;101666.47;4972119;28;20420;-79
2022/05/22 08:29:31;;;;;;;23.80;4.85;;;;;;;24.08;37.48;101657.19;4955795;28;20019;-79
2022/05/22 08:31:56;;;;;;;23.90;4.13;;;;;;;24.26;36.09;101658.84;4972394;28;20030;-78
2022/05/22 08:34:21;;;;;;;23.88;3.97;;;;;;;25.14;33.24;101647.78;4972474;28;20435;-80
2022/05/22 08:36:48;;;;;;;17.05;2.95;;;;;;;26.38;31.87;101655.94;4974186;28;20450;-79
2022/05/22 08:39:13;;;;;;;18.77;3.30;;;;;;;26.70;29.81;101653.09;4972930;28;20196;-79
2022/05/22 08:41:45;;;;;;;15.95;3.03;;;;;;;26.44;31.29;101641.09;4972977;28;20150;-79
2022/05/22 08:44:10;;;;;;;16.70;2.92;;;;;;;27.28;29.06;101644.72;4942617;28;20034;-79
2022/05/22 08:46:36;;;;;;;16.30;3.03;;;;;;;26.70;29.75;101641.25;4973068;28;20446;-78
2022/05/22 08:49:26;;;;;;;10.27;2.47;;;;;;;26.28;29.39;101634.69;4973520;28;20106;-82
2022/05/22 08:52:09;;;;;;;14.55;2.80;;;;;;;27.00;29.32;101650.69;4973353;28;20538;-80
2022/05/22 08:54:39;;;;;;;18.10;2.38;;;;;;;24.98;30.09;101635.78;4972942;28;20494;-79
2022/05/22 08:59:59;;;;;;;23.38;3.70;;;;;;;24.59;31.62;101637.81;4958436;28;20497;-79
2022/05/22 09:02:38;;;;;;;21.23;3.83;;;;;;;23.47;34.61;101634.22;4972621;28;20046;-79
2022/05/22 09:05:19;;;;;;;16.45;3.47;;;;;;;24.96;33.61;101626.13;4955130;28;20035;-80
2022/05/22 09:08:07;;;;;;;21.95;4.30;;;;;;;24.79;32.91;101617.13;4937748;29;20050;-80
2022/05/22 09:10:39;;;;;;;16.23;3.45;;;;;;;24.75;32.30;101623.16;4938751;29;20023;-80
2022/05/22 09:13:07;;;;;;;20.58;4.28;;;;;;;25.39;33.27;101624.38;4956246;29;20034;-80
2022/05/22 09:15:54;;;;;;;24.27;4.63;;;;;;;24.28;34.84;101612.66;4953695;29;20062;-79
2022/05/22 09:18:32;;;;;;;19.42;3.92;;;;;;;23.98;34.75;101609.47;4954833;29;20027;-79
2022/05/22 09:21:01;;;;;;;15.95;3.67;;;;;;;25.52;32.34;101599.13;4935903;29;20031;-78
2022/05/22 09:23:51;;;;;;;15.18;3.65;;;;;;;25.93;32.74;101604.94;4953860;29;20027;-79
2022/05/22 09:26:42;;;;;;;18.35;4.10;;;;;;;26.35;31.26;101598.53;4935923;29;20035;-80
2022/05/22 09:29:57;;;;;;;28.40;4.90;;;;;;;24.60;34.19;101592.72;4936287;29;20067;-80
2022/05/22 09:32:45;;;;;;;17.08;3.90;;;;;;;24.64;33.20;101604.03;4930116;29;20130;-80
2022/05/22 09:35:30;;;;;;;20.45;3.60;;;;;;;25.44;32.95;101588.59;4936365;29;20094;-80
2022/05/22 09:38:06;;;;;;;18.48;3.58;;;;;;;25.67;31.80;101589.31;4936623;29;20058;-79
2022/05/22 09:40:50;;;;;;;19.73;3.50;;;;;;;26.52;30.28;101590.09;4953504;29;20036;-79
2022/05/22 09:43:42;;;;;;;20.38;2.90;;;;;;;24.86;30.91;101573.72;4936198;29;20047;-79
2022/05/22 09:46:17;;;;;;;21.08;3.67;;;;;;;24.76;31.57;101582.69;4953731;29;20039;-79
2022/05/22 09:49:29;;;;;;;22.35;3.70;;;;;;;24.28;33.50;101587.06;4954221;29;20052;-81
2022/05/22 09:52:01;;;;;;;13.88;3.45;;;;;;;24.58;31.59;101581.13;4937839;29;20051;-79
2022/05/22 09:54:42;;;;;;;18.40;3.65;;;;;;;25.13;31.48;101584.72;4953576;29;20033;-79
2022/05/22 09:57:26;;;;;;;18.67;3.70;;;;;;;24.68;31.85;101585.91;4954171;29;20035;-80
2022/05/22 10:00:05;;;;;;;23.75;4.38;;;;;;;24.65;32.49;101581.75;4953563;29;20032;-79
2022/05/22 10:02:39;;;;;;;14.88;3.22;;;;;;;24.17;33.03;101580.59;4953692;29;20698;-79
2022/05/22 10:05:21;;;;;;;20.45;3.50;;;;;;;24.89;32.35;101579.53;4935970;29;20455;-79
2022/05/22 10:08:11;;;;;;;21.10;3.85;;;;;;;24.90;32.88;101585.88;4953866;29;20456;-81
2022/05/22 10:10:45;;;;;;;19.55;4.00;;;;;;;25.37;31.19;101575.03;4952833;29;20031;-81
2022/05/22 10:13:38;;;;;;;17.38;4.10;;;;;;;26.36;30.70;101575.38;4953828;29;20019;-79
2022/05/22 10:16:16;;;;;;;15.25;3.85;;;;;;;26.59;29.59;101579.59;4954245;29;20062;-78
2022/05/22 10:19:06;;;;;;;20.40;3.95;;;;;;;27.69;27.76;101564.50;4936216;29;20126;-81
2022/05/22 10:21:48;;;;;;;17.05;3.33;;;;;;;28.21;27.13;101566.03;4937119;29;20118;-79
2022/05/22 10:24:38;;;;;;;13.98;3.40;;;;;;;28.06;26.64;101568.84;4937221;29;20023;-80
2022/05/22 10:27:28;;;;;;;19.73;3.22;;;;;;;27.61;27.42;101559.53;4953865;29;20047;-79
2022/05/22 10:30:10;;;;;;;20.40;3.50;;;;;;;27.01;27.22;101553.72;4953847;29;20464;-79
2022/05/22 10:32:43;;;;;;;16.27;2.60;;;;;;;27.18;27.76;101553.50;4936447;29;20035;-79
2022/05/22 10:35:47;;;;;;;16.17;3.80;;;;;;;26.35;28.00;101540.59;4938850;29;20051;-79
2022/05/22 10:38:28;;;;;;;14.77;3.28;;;;;;;27.97;26.91;101542.88;4955960;29;20078;-80
2022/05/22 10:43:45;;;;;;;20.13;3.33;;;;;;;27.84;26.85;101537.94;4956125;29;20090;-80
2022/05/22 10:46:11;;;;;;;14.00;3.80;;;;;;;27.48;26.73;101525.00;4939478;29;20042;-81
2022/05/22 10:48:47;;;;;;;15.45;3.10;;;;;;;28.23;26.05;101525.06;4956972;29;20031;-80
2022/05/22 10:51:21;;;;;;;17.98;3.53;;;;;;;27.54;27.37;101531.34;4942007;28;20112;-80
2022/05/22 10:53:53;;;;;;;19.90;4.50;;;;;;;27.15;28.13;101524.44;4975038;28;20027;-79
2022/05/22 10:56:21;;;;;;;19.33;3.90;;;;;;;27.92;27.74;101515.25;4973972;28;20058;-80
2022/05/22 10:58:51;;;;;;;19.75;3.97;;;;;;;27.70;27.63;101510.84;4975392;28;20451;-81
2022/05/22 11:01:19;;;;;;;18.58;4.07;;;;;;;27.36;28.32;101510.66;4975524;28;20562;-80
2022/05/22 11:03:44;;;;;;;13.20;3.60;;;;;;;27.89;27.13;101519.41;4974691;28;20027;-80
2022/05/22 11:06:20;;;;;;;18.58;5.15;;;;;;;27.88;27.69;101511.38;4975221;28;20042;-81
2022/05/22 11:08:51;;;;;;;13.32;3.72;;;;;;;28.18;26.28;101510.44;4975945;28;20413;-80
2022/05/22 11:11:23;;;;;;;16.67;3.78;;;;;;;27.50;26.78;101506.19;4958015;28;20027;-81
2022/05/22 11:13:50;;;;;;;22.13;4.10;;;;;;;27.52;27.31;101514.22;4975120;28;20026;-79
2022/05/22 11:16:18;;;;;;;13.20;3.17;;;;;;;28.12;27.23;101512.41;4976133;28;20023;-79
2022/05/22 11:18:44;;;;;;;24.55;4.05;;;;;;;28.48;26.07;101506.69;4957639;28;20023;-79
2022/05/22 11:21:22;;;;;;;18.33;4.65;;;;;;;27.96;27.85;101508.88;4957229;28;20053;-79
2022/05/22 11:24:00;;;;;;;23.77;4.95;;;;;;;27.10;29.01;101501.53;4957581;28;20042;-81
2022/05/22 11:26:34;;;;;;;20.25;4.70;;;;;;;27.24;27.65;101496.28;4974203;28;20038;-81
2022/05/22 11:29:16;;;;;;;19.88;4.43;;;;;;;27.74;27.87;101487.03;4974544;28;20030;-80
2022/05/22 11:31:51;;;;;;;15.93;3.58;;;;;;;28.76;25.93;101482.13;4957177;28;20038;-80
2022/05/22 11:34:35;;;;;;;21.05;4.22;;;;;;;27.95;27.47;101473.16;4973816;28;20130;-80
2022/05/22 11:37:29;;;;;;;28.42;5.65;;;;;;;27.86;28.21;101475.69;4974994;28;20031;-80
2022/05/22 11:40:29;;;;;;;18.25;4.78;;;;;;;27.59;28.52;101470.50;4974685;28;20086;-81
2022/05/22 11:43:11;;;;;;;21.73;5.72;;;;;;;26.71;29.57;101455.13;4974704;28;20027;-80